createdAt,value
2022-10-05T00:02:24.145Z,5.73
2022-10-05T00:07:18.986Z,5.97
2022-10-05T00:12:21.883Z,5.80
2022-10-05T00:17:26.669Z,5.80
2022-10-05T00:22:40.280Z,5.25
2022-10-05T00:27:37.915Z,5.50
2022-10-05T00:32:32.251Z,5.85
2022-10-05T00:37:25.683Z,5.22
2022-10-05T00:42:30.661Z,5.70
2022-10-05T00:47:42.205Z,5.85
2022-10-05T00:53:03.187Z,5.70
2022-10-05T00:58:03.839Z,5.28
2022-10-05T01:07:54.998Z,5.32
2022-10-05T01:13:12.874Z,5.68
2022-10-05T01:18:19.477Z,5.63
2022-10-05T01:23:39.605Z,5.10
2022-10-05T01:28:41.912Z,5.25
2022-10-05T01:33:41.828Z,5.07
2022-10-05T01:38:43.462Z,5.40
2022-10-05T01:44:06.143Z,5.78
2022-10-05T01:49:36.652Z,4.97
2022-10-05T01:54:32.071Z,5.80
2022-10-05T01:59:33.589Z,4.82
2022-10-05T02:05:01.972Z,5.53
2022-10-05T02:10:01.266Z,5.60
2022-10-05T02:14:59.817Z,4.75
2022-10-05T02:20:00.920Z,5.30
2022-10-05T02:25:04.047Z,5.47
2022-10-05T02:30:02.402Z,5.63
2022-10-05T02:35:05.333Z,5.22
2022-10-05T02:40:32.138Z,5.47
2022-10-05T02:45:40.686Z,5.05
2022-10-05T02:50:38.474Z,4.80
2022-10-05T02:56:07.548Z,4.95
2022-10-05T03:01:28.098Z,4.90
2022-10-05T03:06:30.392Z,5.13
2022-10-05T03:12:02.066Z,5.80
2022-10-05T03:17:10.488Z,4.80
2022-10-05T03:22:12.282Z,4.57
2022-10-05T03:27:54.864Z,4.63
2022-10-05T03:32:57.494Z,5.18
2022-10-05T03:38:18.905Z,4.97
2022-10-05T03:43:24.790Z,4.40
2022-10-05T03:48:28.346Z,4.75
2022-10-05T03:53:31.293Z,4.70
2022-10-05T03:58:38.087Z,5.05
2022-10-05T04:03:34.176Z,4.72
2022-10-05T04:08:55.638Z,4.53
2022-10-05T04:14:04.738Z,5.05
2022-10-05T04:19:10.261Z,4.22
2022-10-05T04:24:17.079Z,4.30
2022-10-05T04:29:32.736Z,4.47
2022-10-05T04:34:46.445Z,4.45
2022-10-05T04:40:06.820Z,4.35
2022-10-05T04:45:10.927Z,4.37
2022-10-05T04:50:30.045Z,4.45
2022-10-05T04:55:44.232Z,4.50
2022-10-05T05:00:51.922Z,3.72
2022-10-05T05:06:15.888Z,4.25
2022-10-05T05:11:25.596Z,3.90
2022-10-05T05:16:27.904Z,3.85
2022-10-05T05:21:57.943Z,4.88
2022-10-05T05:27:07.259Z,5.13
2022-10-05T05:32:09.205Z,4.47
2022-10-05T05:37:23.432Z,4.03
2022-10-05T05:42:28.205Z,4.30
2022-10-05T05:47:53.014Z,6.10
2022-10-05T05:52:59.332Z,6.00
2022-10-05T05:58:00.883Z,7.90
2022-10-05T06:03:18.455Z,7.18
2022-10-05T06:08:25.591Z,7.28
2022-10-05T06:13:34.576Z,7.72
2022-10-05T06:18:32.840Z,7.95
2022-10-05T06:23:48.596Z,6.38
2022-10-05T06:28:42.495Z,6.85
2022-10-05T06:33:55.253Z,9.10
2022-10-05T06:39:20.067Z,14.57
2022-10-05T06:49:58.529Z,14.93
2022-10-05T06:55:33.824Z,14.68
2022-10-05T07:00:39.573Z,14.93
2022-10-05T07:05:50.118Z,15.48
2022-10-05T07:10:51.683Z,15.02
2022-10-05T07:16:11.650Z,15.23
2022-10-05T07:21:34.977Z,14.18
2022-10-05T07:26:40.128Z,15.57
2022-10-05T07:31:59.548Z,16.77
2022-10-05T07:37:23.981Z,15.07
2022-10-05T07:42:54.371Z,17.17
2022-10-05T07:47:57.706Z,18.33
2022-10-05T07:52:58.323Z,19.73
2022-10-05T07:58:06.368Z,20.45
2022-10-05T08:03:10.896Z,18.55
2022-10-05T08:08:20.541Z,16.85
2022-10-05T08:13:41.628Z,19.35
2022-10-05T08:18:37.876Z,20.30
2022-10-05T08:23:58.644Z,18.20
2022-10-05T08:29:24.944Z,17.33
2022-10-05T08:34:55.506Z,17.02
2022-10-05T08:40:16.309Z,21.27
2022-10-05T08:50:52.300Z,15.77
2022-10-05T08:55:55.296Z,20.40
2022-10-05T09:01:16.202Z,17.35
2022-10-05T09:06:24.376Z,16.95
2022-10-05T09:11:36.568Z,16.67
2022-10-05T09:16:39.385Z,19.23
2022-10-05T09:21:49.548Z,22.00
2022-10-05T09:27:08.439Z,19.77
2022-10-05T09:32:32.231Z,18.88
2022-10-05T09:37:49.944Z,19.35
2022-10-05T09:43:12.481Z,18.63
2022-10-05T09:48:36.499Z,19.33
2022-10-05T09:54:06.106Z,17.48
2022-10-05T09:59:13.581Z,17.60
2022-10-05T10:04:13.555Z,17.77
2022-10-05T10:09:38.709Z,15.10
2022-10-05T10:15:10.151Z,13.93
2022-10-05T10:20:05.521Z,11.82
2022-10-05T10:25:19.719Z,12.20
2022-10-05T10:30:52.181Z,11.45
2022-10-05T10:36:14.328Z,11.88
2022-10-05T10:41:07.314Z,12.38
2022-10-05T10:46:13.757Z,13.68
2022-10-05T10:51:06.944Z,15.63
2022-10-05T10:56:12.698Z,16.55
2022-10-05T11:01:24.250Z,15.02
2022-10-05T11:06:31.861Z,14.45
2022-10-05T11:11:43.685Z,15.27
2022-10-05T11:16:46.455Z,14.68
2022-10-05T11:21:51.932Z,16.45
2022-10-05T11:26:47.558Z,16.83
2022-10-05T11:32:16.787Z,14.73
2022-10-05T11:37:13.014Z,14.07
2022-10-05T11:42:24.690Z,13.45
2022-10-05T11:48:13.180Z,11.60
2022-10-05T11:53:15.179Z,11.82
2022-10-05T11:58:15.956Z,11.77
2022-10-05T12:03:40.841Z,10.70
2022-10-05T12:08:55.288Z,10.00
2022-10-05T12:14:28.059Z,11.32
2022-10-05T12:19:32.121Z,12.15
2022-10-05T12:24:45.338Z,14.13
2022-10-05T12:29:48.256Z,13.93
2022-10-05T12:35:01.107Z,13.85
2022-10-05T12:40:18.839Z,14.50
2022-10-05T12:45:30.856Z,12.98
2022-10-05T12:50:48.948Z,13.30
2022-10-05T12:56:03.572Z,12.75
2022-10-05T13:01:17.240Z,10.88
2022-10-05T13:06:55.893Z,10.23
2022-10-05T13:11:53.268Z,9.57
2022-10-05T13:17:49.844Z,8.43
2022-10-05T13:23:09.076Z,7.70
2022-10-05T13:28:02.326Z,7.28
2022-10-05T13:32:58.968Z,8.18
2022-10-05T13:38:04.013Z,7.57
2022-10-05T13:43:28.297Z,6.80
2022-10-05T13:48:58.421Z,7.15
2022-10-05T13:54:38.108Z,6.70
2022-10-05T13:59:42.499Z,6.53
2022-10-05T14:04:48.957Z,7.03
2022-10-05T14:10:07.613Z,6.65
2022-10-05T14:15:36.298Z,7.07
2022-10-05T14:20:35.933Z,6.18
2022-10-05T14:25:31.189Z,5.93
2022-10-05T14:30:26.244Z,5.97
2022-10-05T14:35:23.363Z,5.90
2022-10-05T14:40:37.750Z,6.32
2022-10-05T14:45:33.852Z,6.10
2022-10-05T14:50:30.619Z,5.95
2022-10-05T14:55:45.870Z,5.63
2022-10-05T15:00:57.293Z,5.25
2022-10-05T15:06:00.573Z,4.75
2022-10-05T15:11:26.731Z,4.65
2022-10-05T15:16:26.047Z,4.55
2022-10-05T15:21:44.269Z,4.57
2022-10-05T15:26:46.972Z,4.40
2022-10-05T15:31:58.925Z,4.25
2022-10-05T15:36:52.682Z,4.53
2022-10-05T15:42:05.665Z,3.63
2022-10-05T15:47:07.563Z,3.35
2022-10-05T15:52:27.542Z,3.53
2022-10-05T16:02:26.930Z,3.38
2022-10-05T16:07:59.563Z,3.00
2022-10-05T16:13:21.908Z,3.47
2022-10-05T16:18:58.479Z,2.70
2022-10-05T16:24:12.910Z,2.55
2022-10-05T16:29:13.785Z,2.67
2022-10-05T16:34:22.227Z,2.50
2022-10-05T16:39:49.106Z,2.70
2022-10-05T16:45:07.353Z,2.67
2022-10-05T16:50:20.033Z,2.95
2022-10-05T16:55:20.300Z,4.00
2022-10-05T17:00:16.276Z,5.23
2022-10-05T17:05:52.020Z,5.22
2022-10-05T17:10:50.748Z,5.18
2022-10-05T17:16:08.436Z,5.40
2022-10-05T17:21:46.302Z,5.32
2022-10-05T17:26:57.689Z,4.80
2022-10-05T17:32:06.754Z,5.30
2022-10-05T17:37:28.571Z,4.47
2022-10-05T17:42:27.032Z,4.75
2022-10-05T17:47:58.426Z,4.68
2022-10-05T17:53:39.139Z,4.43
2022-10-05T17:58:32.078Z,4.90
2022-10-05T18:03:43.095Z,4.70
2022-10-05T18:08:40.696Z,4.05
2022-10-05T18:13:47.157Z,5.45
2022-10-05T18:18:43.337Z,6.25
2022-10-05T18:23:37.811Z,6.57
2022-10-05T18:28:48.908Z,6.75
2022-10-05T18:33:44.893Z,6.60
2022-10-05T18:38:44.069Z,7.40
2022-10-05T18:43:59.853Z,6.85
2022-10-05T18:49:18.020Z,7.75
2022-10-05T18:54:42.194Z,6.90
2022-10-05T19:00:08.696Z,6.47
2022-10-05T19:05:46.955Z,6.97
2022-10-05T19:11:12.980Z,7.05
2022-10-05T19:16:18.557Z,6.40
2022-10-05T19:21:17.836Z,8.00
2022-10-05T19:26:50.025Z,7.70
2022-10-05T19:31:52.245Z,7.63
2022-10-05T19:37:27.940Z,7.50
2022-10-05T19:42:50.549Z,6.60
2022-10-05T19:48:21.139Z,6.72
2022-10-05T19:53:23.331Z,6.20
2022-10-05T19:58:20.794Z,6.28
2022-10-05T20:03:28.156Z,5.80
2022-10-05T20:08:22.620Z,4.78
2022-10-05T20:13:22.613Z,4.78
2022-10-05T20:19:01.402Z,5.00
2022-10-05T20:24:13.914Z,5.35
2022-10-05T20:29:09.679Z,5.03
2022-10-05T20:34:03.512Z,5.03
2022-10-05T20:38:57.237Z,4.43
2022-10-05T20:43:50.967Z,5.00
2022-10-05T20:48:45.859Z,4.40
2022-10-05T20:53:39.769Z,4.80
2022-10-05T20:58:37.757Z,3.78
2022-10-05T21:03:31.792Z,4.47
2022-10-05T21:08:25.819Z,3.15
2022-10-05T21:13:20.468Z,3.80
2022-10-05T21:18:16.500Z,3.85
2022-10-05T21:23:09.859Z,3.58
2022-10-05T21:28:03.449Z,3.97
2022-10-05T21:32:57.819Z,3.55
2022-10-05T21:37:52.468Z,3.40
2022-10-05T21:42:46.873Z,3.78
2022-10-05T21:47:40.581Z,4.55
2022-10-05T21:52:35.894Z,4.50
2022-10-05T21:57:29.752Z,3.97
2022-10-05T22:02:23.848Z,4.43
2022-10-05T22:07:19.147Z,3.88
2022-10-05T22:12:13.365Z,3.88
2022-10-05T22:17:07.799Z,3.72
2022-10-05T22:22:01.654Z,4.60
2022-10-05T22:26:54.842Z,4.05
2022-10-05T22:31:49.548Z,3.88
2022-10-05T22:36:43.321Z,4.82
2022-10-05T22:41:37.564Z,3.72
2022-10-05T22:46:31.513Z,3.72
2022-10-05T22:51:25.651Z,3.88
2022-10-05T22:56:18.838Z,4.00
2022-10-05T23:01:19.522Z,4.13
2022-10-05T23:06:34.707Z,4.03
2022-10-05T23:11:29.589Z,4.35
2022-10-05T23:16:25.452Z,4.75
2022-10-05T23:21:21.113Z,4.55
2022-10-05T23:26:16.887Z,4.75
2022-10-05T23:31:09.135Z,4.90
2022-10-05T23:36:08.822Z,3.30
2022-10-05T23:41:03.148Z,4.53
2022-10-05T23:45:56.711Z,4.63
2022-10-05T23:50:50.996Z,5.03
2022-10-05T23:55:44.872Z,4.68
